AirNav   Air Wisconsin pilot careers
 
 1557 users online  

1U6 Oakley Municipal Airport
Oakley, Idaho, USA


FAA INFORMATION EFFECTIVE 04 JANUARY 2018

Location

FAA Identifier: 1U6
Lat/Long: 42-14-02.0000N / 113-52-39.5000W
42-14.033333N / 113-52.658333W
42.2338889 / -113.8776389
(estimated)
Elevation: 4664 ft. / 1421.6 m (surveyed)
Variation: 16E (1985)
Time zone: UTC -7 (UTC -6 during Daylight Saving Time)
Zip code: 83346

Airport Operations

Airport use: Open to the public
Activation date: 11/1959
Control tower: no
ARTCC: SALT LAKE CITY CENTER
FSS: BOISE FLIGHT SERVICE STATION
NOTAMs facility: BOI (NOTAM-D service available)
Attendance: UNATNDD
Wind indicator: yes
Segmented circle: no

Airport Communications

CTAF: 122.9
WX ASOS at BYI (19 nm N): 135.575 (208-677-3604)

Nearby radio navigation aids

VOR radial/distance  VOR name  Freq  Var
BYIr163/20.8BURLEY VOR/DME114.1018E
TWFr101/30.9TWIN FALLS VORTAC115.8018E

 
NDB name  Hdg/Dist  Freq  Var  ID
STRIK112/25.738913ETWF - .-- ..-.

Airport Services

Airframe service: NONE
Powerplant service: NONE
Bottled oxygen: NONE
Bulk oxygen: NONE

Runway Information

Runway 17/35

Dimensions: 3795 x 40 ft. / 1157 x 12 m
Surface: gravel, in excellent condition
Gradient: N
RUNWAY 17  RUNWAY 35
Latitude: 42-14.344833N42-13.720000N
Longitude: 113-52.655167W113-52.660833W
Elevation: 4664.0 ft.4604.0 ft.
Gradient: 1.6% UP
Traffic pattern: leftleft
Obstructions: 5 ft. fence, 75 ft. from runway, 15:1 slope to clear
17/35 NUMEROUS ADDITIONAL OBSTS ON APCH TO RY 17 & 35.
4 ft. fence, 110 ft. left of centerline

Airport Ownership and Management from official FAA records

Ownership: Publicly-owned
Owner: CITY OF OAKLEY
P O BOX 266
OAKLEY, ID 83346
Phone 208-862-3313
Manager: JARED MITTON
P O BOX 266
OAKLEY, ID 83346
Phone 208-431-6090

Airport Operational Statistics

Aircraft operations: avg 23/week *
100% transient general aviation
* for 12-month period ending 18 March 2016

Additional Remarks

RWY SURFACE SOFT DURING EARLY SPRING.
NO WINTER MAINTENANCE.
RISING TRRN AND +60 FT WIND TURBINE 3/4 MILE SOUTH ON RY CNTRLN.

Instrument Procedures

There are no published instrument procedures at 1U6.

Some nearby airports with instrument procedures:

KBYI - Burley Municipal Airport (19 nm N)
KTWF - Joslin Field - Magic Valley Regional Airport (31 nm NW)
KJER - Jerome County Airport (39 nm NW)
KGNG - Gooding Municipal Airport (57 nm NW)
KPIH - Pocatello Regional Airport (70 nm NE)
 
Loc | Ops | Rwys | IFR | FBO | Links
Com | Nav | Svcs | Stats | Notes


 
Area around 1U6 (Oakley Municipal Airport)
 
Road maps at: MapQuest Bing Google
 
Aerial photo
WARNING: Photo may not be current or correct
Aerial photo of 1U6 (Oakley Municipal Airport)
Photo by Ai Mitton- Blue Griffin Concepts
Photo taken 24-Jul-2011
looking south.

Do you have a better or more recent aerial photo of Oakley Municipal Airport that you would like to share? If so, please send us your photo.

 
Sectional chart

 
Airport distance calculator
Flying to Oakley Municipal Airport? Find the distance to fly.

From to 1U6

Sunrise and sunset
Times for 22-Jan-2018
 Local
(UTC-7)
 Zulu
(UTC)
Morning civil twilight07:2814:28
Sunrise07:5914:59
Sunset17:3600:36
Evening civil twilight18:0601:06

Current date and time
Zulu (UTC)  22-Jan-2018 19:21:15
Local (UTC-7)  22-Jan-2018 12:21:15
 
METAR
KBYI 
20nm N 
221901Z AUTO 21011KT 10SM FEW017 OVC032 02/M02 A3020 RMK AO2 T00221022
KTWF 
31nm NW 
221853Z 22007KT 10SM BKN037 OVC055 03/00 A3022 RMK AO2 SLP235 T00280000
KJER 
38nm NW 
221853Z AUTO 18004KT 6SM -SN BR FEW014 SCT033 OVC040 01/00 A3022 RMK AO2 SLP254 P0000 T00110000
TAF
KBYI 
20nm N 
221722Z 2218/2318 21015G25KT 2SM -SN SCT008 BKN025 OVC060 TEMPO 2218/2220 1/2SM SN SCT008 OVC015 FM222000 27010G20KT P6SM VCSH SCT008 BKN025 OVC060 FM222300 26015KT P6SM SCT025 BKN060 FM230130 23008KT P6SM FEW008 FM231200 19006KT P6SM VCFG SCT008
NOTAMs
Click for the latest NOTAMs
NOTAMs are issued by the DoD/FAA and will open in a separate window not controlled by AirNav.

 

 
 

Would you like to see your business listed on this page?

 If your business provides an interesting product or service to pilots, flight crews, aircraft, or users of the Oakley Municipal Airport, you should consider listing it here.  To start the listing process, click on the button below
 
Add a business
 

Other Pages about Oakley Municipal Airport

Update a link
 
Copyright © AirNav, LLC. All rights reserved. Privacy Policy  Contact